createdAt,value
2019-05-26T00:00:49.960Z,4.80
2019-05-26T00:03:18.677Z,3.67
2019-05-26T00:05:47.445Z,4.03
2019-05-26T00:08:16.197Z,4.40
2019-05-26T00:10:44.896Z,4.00
2019-05-26T00:13:13.598Z,4.50
2019-05-26T00:15:42.375Z,4.20
2019-05-26T00:18:11.069Z,4.87
2019-05-26T00:20:39.778Z,3.87
2019-05-26T00:23:08.544Z,4.13
2019-05-26T00:25:37.336Z,4.50
2019-05-26T00:28:06.111Z,4.23
2019-05-26T00:30:34.820Z,4.50
2019-05-26T00:33:03.590Z,4.30
2019-05-26T00:35:32.354Z,4.13
2019-05-26T00:38:01.070Z,4.37
2019-05-26T00:40:29.786Z,5.07
2019-05-26T00:42:58.486Z,3.83
2019-05-26T00:45:27.365Z,4.20
2019-05-26T00:47:56.145Z,3.87
2019-05-26T00:50:24.853Z,3.73
2019-05-26T00:52:56.520Z,3.97
2019-05-26T00:55:23.924Z,3.77
2019-05-26T00:57:52.706Z,3.50
2019-05-26T01:00:38.995Z,4.23
2019-05-26T01:03:07.713Z,3.60
2019-05-26T01:05:36.408Z,4.00
2019-05-26T01:08:07.014Z,4.43
2019-05-26T01:10:36.321Z,4.00
2019-05-26T01:13:06.228Z,3.80
2019-05-26T01:15:34.932Z,3.93
2019-05-26T01:18:03.845Z,4.73
2019-05-26T01:20:32.546Z,3.63
2019-05-26T01:23:01.322Z,3.90
2019-05-26T01:25:30.022Z,3.10
2019-05-26T01:27:58.721Z,3.43
2019-05-26T01:30:37.733Z,3.60
2019-05-26T01:33:07.049Z,4.17
2019-05-26T01:35:38.520Z,3.20
2019-05-26T01:38:22.620Z,4.00
2019-05-26T01:40:42.916Z,4.40
2019-05-26T01:43:11.646Z,3.90
2019-05-26T01:45:40.350Z,3.93
2019-05-26T01:48:09.057Z,3.90
2019-05-26T01:50:37.977Z,3.93
2019-05-26T01:53:07.275Z,3.47
2019-05-26T01:55:35.981Z,3.30
2019-05-26T01:58:05.195Z,4.07
2019-05-26T02:00:33.911Z,3.93
2019-05-26T02:03:02.711Z,3.43
2019-05-26T02:05:31.420Z,3.10
2019-05-26T02:08:00.143Z,3.00
2019-05-26T02:10:28.868Z,3.00
2019-05-26T02:12:57.622Z,3.20
2019-05-26T02:15:28.843Z,3.33
2019-05-26T02:17:57.529Z,3.47
2019-05-26T02:20:26.300Z,2.90
2019-05-26T02:22:55.012Z,3.97
2019-05-26T02:25:25.094Z,3.60
2019-05-26T02:27:53.884Z,3.60
2019-05-26T02:30:24.009Z,3.70
2019-05-26T02:32:52.779Z,3.50
2019-05-26T02:35:21.775Z,3.73
2019-05-26T02:37:50.555Z,3.67
2019-05-26T02:40:19.850Z,3.30
2019-05-26T02:42:48.564Z,3.13
2019-05-26T02:45:19.524Z,3.67
2019-05-26T02:47:48.226Z,3.13
2019-05-26T02:50:19.106Z,2.70
2019-05-26T02:52:47.813Z,3.10
2019-05-26T02:55:17.251Z,3.03
2019-05-26T02:57:45.922Z,3.60
2019-05-26T03:00:16.918Z,2.80
2019-05-26T03:02:45.917Z,2.77
2019-05-26T03:05:15.414Z,2.90
2019-05-26T03:07:44.722Z,3.10
2019-05-26T03:10:14.583Z,2.90
2019-05-26T03:12:43.597Z,2.63
2019-05-26T03:15:13.894Z,2.87
2019-05-26T03:17:43.024Z,3.17
2019-05-26T03:20:13.559Z,2.53
2019-05-26T03:22:42.890Z,3.13
2019-05-26T03:25:13.287Z,2.90
2019-05-26T03:27:42.001Z,3.07
2019-05-26T03:30:11.215Z,2.93
2019-05-26T03:32:40.110Z,3.10
2019-05-26T03:35:09.354Z,3.13
2019-05-26T03:37:38.131Z,3.00
2019-05-26T03:40:09.025Z,3.30
2019-05-26T03:42:37.746Z,2.53
2019-05-26T03:45:09.990Z,3.40
2019-05-26T03:47:38.710Z,3.77
2019-05-26T03:50:08.078Z,3.27
2019-05-26T03:52:36.857Z,3.13
2019-05-26T03:55:07.045Z,3.50
2019-05-26T03:57:35.756Z,4.00
2019-05-26T04:00:07.805Z,4.13
2019-05-26T04:02:36.642Z,4.17
2019-05-26T04:05:08.321Z,4.20
2019-05-26T04:07:37.019Z,4.10
2019-05-26T04:10:09.291Z,4.70
2019-05-26T04:12:38.074Z,5.10
2019-05-26T04:15:07.855Z,4.40
2019-05-26T04:17:36.577Z,4.70
2019-05-26T04:20:08.715Z,5.37
2019-05-26T04:22:37.465Z,5.57
2019-05-26T04:25:06.698Z,4.67
2019-05-26T04:27:35.473Z,5.83
2019-05-26T04:30:06.914Z,4.97
2019-05-26T04:32:35.608Z,6.00
2019-05-26T04:35:06.320Z,4.67
2019-05-26T04:37:35.027Z,4.97
2019-05-26T04:40:25.067Z,5.30
2019-05-26T04:42:36.890Z,5.17
2019-05-26T04:45:08.220Z,5.27
2019-05-26T04:47:36.952Z,4.73
2019-05-26T04:50:06.243Z,4.90
2019-05-26T04:52:34.963Z,4.90
2019-05-26T04:55:07.505Z,5.30
2019-05-26T04:57:36.187Z,4.63
2019-05-26T05:00:06.440Z,5.00
2019-05-26T05:02:35.214Z,4.40
2019-05-26T05:05:05.711Z,4.30
2019-05-26T05:07:34.506Z,4.60
2019-05-26T05:10:03.505Z,4.70
2019-05-26T05:12:32.217Z,4.57
2019-05-26T05:15:00.925Z,4.33
2019-05-26T05:17:29.669Z,4.40
2019-05-26T05:19:58.444Z,4.50
2019-05-26T05:22:27.144Z,5.17
2019-05-26T05:24:55.867Z,4.43
2019-05-26T05:27:24.561Z,4.20
2019-05-26T05:29:53.313Z,4.93
2019-05-26T05:32:22.000Z,4.50
2019-05-26T05:34:50.713Z,4.80
2019-05-26T05:37:19.460Z,4.57
2019-05-26T05:39:48.170Z,4.70
2019-05-26T05:42:16.903Z,4.60
2019-05-26T05:44:45.613Z,4.80
2019-05-26T05:47:14.321Z,4.10
2019-05-26T05:49:43.100Z,3.80
2019-05-26T05:52:11.801Z,4.00
2019-05-26T05:54:40.606Z,3.23
2019-05-26T05:57:09.377Z,3.80
2019-05-26T05:59:38.101Z,3.70
2019-05-26T06:02:06.798Z,2.73
2019-05-26T06:04:35.560Z,3.30
2019-05-26T06:07:04.270Z,3.20
2019-05-26T06:09:32.965Z,2.73
2019-05-26T06:12:01.681Z,2.50
2019-05-26T06:14:30.372Z,2.90
2019-05-26T06:16:59.164Z,2.77
2019-05-26T06:19:27.868Z,2.57
2019-05-26T06:21:56.579Z,2.83
2019-05-26T06:24:25.297Z,3.00
2019-05-26T06:26:53.987Z,2.83
2019-05-26T06:29:22.767Z,2.83
2019-05-26T06:31:51.704Z,2.67
2019-05-26T06:34:20.556Z,2.73
2019-05-26T06:36:49.261Z,3.07
2019-05-26T06:39:18.048Z,3.20
2019-05-26T06:41:46.758Z,2.97
2019-05-26T06:44:15.480Z,3.40
2019-05-26T06:46:44.260Z,2.30
2019-05-26T06:49:12.960Z,2.37
2019-05-26T06:51:41.682Z,2.33
2019-05-26T06:54:10.449Z,1.80
2019-05-26T06:56:39.666Z,2.03
2019-05-26T06:59:08.376Z,2.30
2019-05-26T07:01:37.069Z,1.83
2019-05-26T07:04:05.765Z,2.30
2019-05-26T07:06:34.550Z,2.27
2019-05-26T07:09:03.409Z,2.27
2019-05-26T07:11:47.084Z,2.40
2019-05-26T07:14:02.737Z,2.30
2019-05-26T07:16:38.051Z,2.37
2019-05-26T07:19:01.857Z,2.00
2019-05-26T07:21:30.646Z,1.90
2019-05-26T07:23:59.333Z,2.20
2019-05-26T07:26:28.037Z,2.70
2019-05-26T07:28:56.750Z,1.83
2019-05-26T07:31:25.469Z,2.03
2019-05-26T07:33:54.181Z,2.03
2019-05-26T07:36:22.897Z,1.57
2019-05-26T07:38:51.727Z,2.00
2019-05-26T07:41:20.428Z,2.00
2019-05-26T07:43:49.147Z,1.30
2019-05-26T07:46:17.854Z,1.87
2019-05-26T07:48:46.548Z,1.70
2019-05-26T07:51:15.257Z,1.80
2019-05-26T07:53:44.020Z,1.87
2019-05-26T07:56:12.804Z,1.90
2019-05-26T07:58:41.521Z,2.37
2019-05-26T08:01:10.224Z,1.90
2019-05-26T08:03:38.929Z,2.23
2019-05-26T08:06:07.629Z,1.80
2019-05-26T08:08:36.435Z,1.60
2019-05-26T08:11:05.140Z,1.40
2019-05-26T08:13:33.837Z,1.57
2019-05-26T08:16:02.544Z,1.20
2019-05-26T08:18:31.241Z,1.67
2019-05-26T08:20:59.956Z,1.60
2019-05-26T08:23:28.656Z,2.10
2019-05-26T08:25:57.428Z,2.50
2019-05-26T08:28:26.168Z,2.63
2019-05-26T08:30:54.869Z,2.40
2019-05-26T08:33:23.564Z,2.37
2019-05-26T08:35:52.349Z,2.70
2019-05-26T08:38:21.054Z,2.80
2019-05-26T08:40:50.157Z,2.77
2019-05-26T08:43:18.884Z,2.37
2019-05-26T08:45:47.661Z,2.53
2019-05-26T08:48:16.376Z,2.17
2019-05-26T08:50:45.201Z,2.13
2019-05-26T08:53:13.890Z,2.00
2019-05-26T08:55:42.598Z,2.30
2019-05-26T08:58:11.305Z,2.20
2019-05-26T09:00:40.025Z,1.93
2019-05-26T09:03:08.725Z,1.80
2019-05-26T09:05:37.418Z,1.83
2019-05-26T09:08:08.126Z,1.50
2019-05-26T09:10:36.479Z,1.70
2019-05-26T09:13:05.177Z,1.60
2019-05-26T09:15:33.950Z,1.90
2019-05-26T09:18:02.720Z,2.00
2019-05-26T09:20:31.571Z,1.77
2019-05-26T09:23:00.265Z,1.60
2019-05-26T09:25:29.064Z,1.93
2019-05-26T09:27:57.850Z,1.73
2019-05-26T09:30:26.546Z,1.57
2019-05-26T09:32:55.325Z,1.57
2019-05-26T09:35:24.095Z,1.40
2019-05-26T09:37:52.874Z,1.80
2019-05-26T09:40:21.667Z,1.33
2019-05-26T09:42:50.379Z,2.50
2019-05-26T09:45:19.289Z,1.70
2019-05-26T09:47:48.048Z,1.60
2019-05-26T09:50:17.554Z,1.70
2019-05-26T09:52:46.284Z,1.90
2019-05-26T09:55:15.196Z,2.10
2019-05-26T09:57:43.889Z,2.40
2019-05-26T10:00:16.056Z,2.90
2019-05-26T10:02:43.637Z,2.43
2019-05-26T10:05:12.532Z,3.27
2019-05-26T10:07:41.251Z,2.77
2019-05-26T10:10:10.345Z,2.57
2019-05-26T10:12:39.049Z,2.37
2019-05-26T10:15:08.052Z,2.27
2019-05-26T10:17:36.845Z,2.90
2019-05-26T10:20:12.061Z,2.63
2019-05-26T10:22:40.750Z,2.70
2019-05-26T10:25:10.855Z,3.23
2019-05-26T10:27:39.613Z,3.07
2019-05-26T10:30:10.518Z,3.50
2019-05-26T10:32:39.224Z,3.20
2019-05-26T10:35:08.222Z,3.30
2019-05-26T10:37:36.935Z,2.80
2019-05-26T10:40:07.029Z,2.60
2019-05-26T10:42:35.733Z,2.50
2019-05-26T10:45:07.454Z,2.60
2019-05-26T10:47:36.155Z,2.27
2019-05-26T10:50:07.163Z,2.40
2019-05-26T10:52:35.875Z,2.73
2019-05-26T10:55:06.589Z,2.73
2019-05-26T10:57:35.290Z,2.80
2019-05-26T11:00:05.311Z,3.43
2019-05-26T11:02:34.023Z,2.57
2019-05-26T11:05:02.877Z,2.40
2019-05-26T11:07:31.593Z,2.60
2019-05-26T11:10:00.361Z,2.33
2019-05-26T11:12:29.137Z,1.83
2019-05-26T11:14:57.844Z,2.10
2019-05-26T11:17:26.541Z,2.00
2019-05-26T11:19:55.257Z,2.03
2019-05-26T11:22:23.945Z,2.03
2019-05-26T11:24:52.666Z,2.17
2019-05-26T11:27:21.360Z,2.87
2019-05-26T11:29:50.066Z,3.00
2019-05-26T11:32:18.776Z,2.97
2019-05-26T11:35:00.707Z,3.40
2019-05-26T11:37:17.839Z,3.33
2019-05-26T11:39:46.614Z,1.53
2019-05-26T11:42:15.454Z,1.57
2019-05-26T11:44:44.241Z,1.80
2019-05-26T11:47:13.019Z,1.87
2019-05-26T11:49:41.741Z,2.20
2019-05-26T11:52:10.441Z,1.80
2019-05-26T11:54:39.156Z,1.67
2019-05-26T11:57:07.867Z,1.83
2019-05-26T11:59:36.561Z,1.97
2019-05-26T12:02:05.278Z,1.87
2019-05-26T12:04:33.989Z,1.60
2019-05-26T12:07:04.513Z,1.83
2019-05-26T12:09:33.066Z,1.50
2019-05-26T12:12:01.836Z,1.80
2019-05-26T12:14:34.786Z,2.03
2019-05-26T12:17:00.896Z,1.73
2019-05-26T12:19:29.609Z,2.00
2019-05-26T12:21:58.300Z,2.30
2019-05-26T12:24:27.010Z,1.67
2019-05-26T12:26:55.704Z,2.10
2019-05-26T12:29:24.787Z,2.13
2019-05-26T12:31:53.572Z,1.70
2019-05-26T12:34:22.265Z,1.60
2019-05-26T12:36:50.973Z,1.90
2019-05-26T12:39:19.672Z,2.00
2019-05-26T12:41:48.386Z,2.13
2019-05-26T12:44:17.154Z,2.13
2019-05-26T12:46:45.929Z,1.90
2019-05-26T12:49:14.651Z,2.10
2019-05-26T12:51:43.338Z,2.07
2019-05-26T12:54:12.065Z,2.00
2019-05-26T12:56:40.769Z,2.00
2019-05-26T12:59:09.547Z,2.00
2019-05-26T13:01:38.256Z,1.80
2019-05-26T13:04:07.033Z,2.17
2019-05-26T13:06:35.754Z,1.77
2019-05-26T13:09:10.016Z,1.80
2019-05-26T13:11:38.786Z,2.20
2019-05-26T13:14:07.490Z,2.20
2019-05-26T13:16:36.225Z,1.70
2019-05-26T13:19:05.571Z,2.10
2019-05-26T13:21:34.285Z,1.90
2019-05-26T13:24:03.004Z,2.00
2019-05-26T13:26:31.685Z,2.20
2019-05-26T13:29:00.393Z,1.90
2019-05-26T13:31:29.101Z,2.10
2019-05-26T13:33:57.818Z,2.20
2019-05-26T13:36:26.538Z,2.20
2019-05-26T13:38:55.242Z,2.17
2019-05-26T13:41:24.001Z,2.23
2019-05-26T13:43:52.713Z,2.10
2019-05-26T13:46:21.408Z,2.40
2019-05-26T13:48:50.117Z,2.27
2019-05-26T13:51:18.821Z,2.20
2019-05-26T13:53:47.589Z,2.40
2019-05-26T13:56:16.306Z,2.40
2019-05-26T13:58:45.021Z,2.20
2019-05-26T14:01:13.724Z,2.40
2019-05-26T14:03:42.428Z,2.60
2019-05-26T14:06:11.204Z,2.43
2019-05-26T14:08:39.934Z,2.40
2019-05-26T14:11:08.640Z,2.57
2019-05-26T14:13:37.342Z,2.20
2019-05-26T14:16:06.069Z,2.17
2019-05-26T14:18:36.700Z,2.30
2019-05-26T14:21:05.715Z,2.17
2019-05-26T14:23:34.430Z,2.40
2019-05-26T14:26:03.117Z,2.17
2019-05-26T14:28:31.827Z,2.10
2019-05-26T14:31:00.548Z,2.30
2019-05-26T14:33:29.259Z,2.20
2019-05-26T14:35:57.960Z,2.30
2019-05-26T14:38:40.559Z,2.40
2019-05-26T14:40:57.034Z,2.00
2019-05-26T14:43:25.892Z,2.33
2019-05-26T14:45:54.593Z,2.00
2019-05-26T14:48:23.370Z,2.20
2019-05-26T14:50:52.073Z,2.17
2019-05-26T14:53:20.795Z,2.40
2019-05-26T14:55:49.561Z,2.30
2019-05-26T14:58:18.294Z,2.10
2019-05-26T15:00:47.053Z,2.03
2019-05-26T15:03:15.754Z,2.23
2019-05-26T15:05:44.469Z,1.80
2019-05-26T15:08:13.192Z,1.93
2019-05-26T15:10:41.901Z,1.80
2019-05-26T15:13:10.617Z,1.93
2019-05-26T15:15:39.334Z,1.70
2019-05-26T15:18:08.055Z,1.83
2019-05-26T15:20:36.885Z,1.53
2019-05-26T15:23:05.536Z,1.73
2019-05-26T15:25:34.323Z,1.70
2019-05-26T15:28:03.040Z,1.60
2019-05-26T15:30:31.816Z,1.70
2019-05-26T15:33:00.606Z,1.77
2019-05-26T15:35:29.310Z,1.40
2019-05-26T15:37:58.097Z,1.60
2019-05-26T15:40:26.801Z,1.60
2019-05-26T15:42:55.592Z,1.50
2019-05-26T15:45:24.301Z,1.50
2019-05-26T15:47:53.090Z,1.60
2019-05-26T15:50:21.906Z,1.60
2019-05-26T15:52:50.631Z,1.63
2019-05-26T15:55:19.342Z,1.70
2019-05-26T15:57:48.112Z,1.40
2019-05-26T16:00:16.995Z,1.70
2019-05-26T16:02:45.781Z,1.50
2019-05-26T16:05:14.773Z,1.43
2019-05-26T16:07:43.483Z,1.97
2019-05-26T16:10:12.297Z,1.30
2019-05-26T16:12:41.009Z,1.73
2019-05-26T16:15:09.707Z,1.50
2019-05-26T16:17:39.051Z,1.60
2019-05-26T16:20:09.721Z,1.57
2019-05-26T16:22:38.506Z,1.33
2019-05-26T16:25:08.382Z,1.57
2019-05-26T16:27:37.087Z,1.60
2019-05-26T16:30:08.686Z,1.50
2019-05-26T16:32:37.466Z,1.60
2019-05-26T16:35:06.696Z,1.63
2019-05-26T16:37:35.408Z,1.60
2019-05-26T16:40:05.514Z,1.60
2019-05-26T16:42:34.228Z,1.40
2019-05-26T16:45:02.926Z,1.57
2019-05-26T16:47:31.706Z,1.50
2019-05-26T16:50:00.485Z,1.90
2019-05-26T16:52:29.206Z,1.57
2019-05-26T16:54:57.989Z,1.50
2019-05-26T16:57:26.762Z,1.60
2019-05-26T16:59:55.534Z,1.30
2019-05-26T17:02:24.266Z,1.40
2019-05-26T17:04:52.975Z,1.30
2019-05-26T17:07:21.677Z,1.60
2019-05-26T17:09:50.389Z,1.53
2019-05-26T17:12:19.177Z,1.63
2019-05-26T17:14:47.889Z,1.60
2019-05-26T17:17:16.691Z,1.40
2019-05-26T17:19:45.373Z,1.20
2019-05-26T17:22:14.084Z,1.60
2019-05-26T17:24:42.786Z,1.40
2019-05-26T17:27:11.521Z,1.70
2019-05-26T17:29:40.238Z,1.70
2019-05-26T17:32:08.953Z,1.50
2019-05-26T17:34:37.657Z,1.63
2019-05-26T17:37:06.438Z,1.50
2019-05-26T17:39:35.152Z,1.37
2019-05-26T17:42:03.849Z,1.53
2019-05-26T17:44:32.634Z,1.50
2019-05-26T17:47:01.333Z,1.60
2019-05-26T17:49:30.122Z,1.37
2019-05-26T17:51:58.838Z,1.50
2019-05-26T17:54:27.618Z,1.63
2019-05-26T17:56:56.338Z,1.40
2019-05-26T17:59:25.112Z,1.40
2019-05-26T18:01:53.900Z,1.60
2019-05-26T18:04:22.687Z,1.47
2019-05-26T18:06:51.403Z,1.90
2019-05-26T18:09:20.110Z,1.60
2019-05-26T18:11:48.812Z,1.80
2019-05-26T18:14:17.524Z,1.50
2019-05-26T18:16:46.298Z,1.77
2019-05-26T18:19:15.009Z,1.80
2019-05-26T18:21:43.801Z,1.50
2019-05-26T18:24:12.511Z,1.40
2019-05-26T18:26:41.292Z,1.20
2019-05-26T18:29:10.020Z,1.40
2019-05-26T18:31:38.756Z,1.50
2019-05-26T18:34:07.491Z,1.70
2019-05-26T18:36:36.303Z,1.50
2019-05-26T18:39:07.989Z,1.50
2019-05-26T18:41:36.801Z,1.43
2019-05-26T18:44:05.559Z,1.40
2019-05-26T18:46:34.337Z,1.50
2019-05-26T18:49:03.159Z,1.50
2019-05-26T18:51:31.878Z,3.37
2019-05-26T18:54:00.689Z,3.50
2019-05-26T18:56:29.415Z,3.60
2019-05-26T18:58:58.204Z,3.30
2019-05-26T19:01:26.910Z,2.30
2019-05-26T19:03:55.711Z,2.87
2019-05-26T19:06:24.419Z,3.17
2019-05-26T19:08:53.112Z,2.37
2019-05-26T19:11:21.830Z,2.00
2019-05-26T19:13:50.547Z,2.33
2019-05-26T19:16:19.317Z,1.70
2019-05-26T19:18:48.034Z,1.80
2019-05-26T19:21:16.821Z,1.80
2019-05-26T19:23:45.525Z,1.87
2019-05-26T19:26:14.229Z,2.00
2019-05-26T19:28:42.938Z,1.80
2019-05-26T19:31:11.657Z,1.97
2019-05-26T19:33:40.350Z,2.00
2019-05-26T19:36:09.746Z,1.70
2019-05-26T19:38:38.681Z,1.60
2019-05-26T19:41:07.474Z,2.00
2019-05-26T19:43:36.246Z,1.80
2019-05-26T19:46:05.160Z,1.80
2019-05-26T19:48:36.922Z,1.63
2019-05-26T19:51:04.487Z,2.07
2019-05-26T19:53:33.258Z,1.90
2019-05-26T19:56:01.988Z,2.07
2019-05-26T19:58:30.754Z,1.90
2019-05-26T20:00:59.566Z,2.20
2019-05-26T20:03:28.262Z,1.80
2019-05-26T20:05:56.959Z,2.00
2019-05-26T20:08:25.740Z,1.90
2019-05-26T20:10:54.555Z,2.10
2019-05-26T20:13:23.206Z,1.60
2019-05-26T20:15:51.929Z,1.90
2019-05-26T20:18:20.621Z,2.10
2019-05-26T20:20:49.407Z,2.03
2019-05-26T20:23:18.108Z,2.07
2019-05-26T20:25:46.805Z,1.80
2019-05-26T20:28:15.518Z,2.43
2019-05-26T20:30:44.283Z,2.30
2019-05-26T20:33:12.993Z,2.03
2019-05-26T20:35:41.699Z,2.30
2019-05-26T20:38:11.033Z,2.73
2019-05-26T20:40:39.868Z,2.50
2019-05-26T20:43:08.576Z,2.20
2019-05-26T20:45:37.358Z,2.10
2019-05-26T20:48:06.061Z,2.53
2019-05-26T20:50:34.764Z,2.50
2019-05-26T20:53:03.547Z,2.50
2019-05-26T20:55:32.241Z,2.10
2019-05-26T20:58:00.954Z,2.40
2019-05-26T21:00:29.665Z,2.93
2019-05-26T21:02:58.383Z,2.50
2019-05-26T21:05:27.088Z,2.60
2019-05-26T21:07:55.784Z,2.73
2019-05-26T21:10:24.500Z,3.20
2019-05-26T21:12:53.204Z,2.90
2019-05-26T21:15:21.912Z,2.70
2019-05-26T21:17:50.622Z,2.97
2019-05-26T21:20:20.428Z,2.80
2019-05-26T21:22:49.124Z,2.83
2019-05-26T21:25:18.844Z,3.37
2019-05-26T21:27:47.558Z,3.07
2019-05-26T21:30:16.448Z,3.37
2019-05-26T21:32:45.150Z,3.20
2019-05-26T21:35:14.061Z,3.13
2019-05-26T21:37:42.761Z,2.97
2019-05-26T21:40:11.910Z,2.83
2019-05-26T21:42:40.597Z,2.60
2019-05-26T21:45:10.858Z,2.40
2019-05-26T21:47:39.565Z,2.67
2019-05-26T21:50:09.145Z,2.23
2019-05-26T21:52:37.841Z,2.20
2019-05-26T21:55:07.156Z,2.30
2019-05-26T21:57:35.854Z,2.40
2019-05-26T22:00:12.153Z,2.60
2019-05-26T22:02:40.917Z,2.13
2019-05-26T22:05:09.917Z,2.30
2019-05-26T22:07:38.632Z,2.83
2019-05-26T22:10:07.837Z,2.10
2019-05-26T22:12:36.549Z,2.63
2019-05-26T22:15:08.145Z,2.33
2019-05-26T22:17:37.112Z,2.43
2019-05-26T22:20:09.051Z,2.17
2019-05-26T22:22:37.814Z,2.17
2019-05-26T22:25:07.413Z,2.40
2019-05-26T22:27:36.183Z,2.30
2019-05-26T22:30:09.722Z,2.20
2019-05-26T22:32:38.486Z,2.50
2019-05-26T22:35:08.157Z,2.33
2019-05-26T22:37:36.941Z,1.90
2019-05-26T22:40:07.714Z,2.20
2019-05-26T22:42:36.523Z,2.23
2019-05-26T22:45:09.024Z,2.10
2019-05-26T22:47:37.809Z,2.00
2019-05-26T22:50:08.143Z,2.27
2019-05-26T22:52:36.922Z,2.00
2019-05-26T22:55:09.427Z,2.13
2019-05-26T22:57:38.189Z,2.00
2019-05-26T23:00:11.356Z,2.10
2019-05-26T23:02:40.371Z,2.10
2019-05-26T23:05:09.599Z,2.00
2019-05-26T23:07:38.380Z,2.40
2019-05-26T23:10:08.467Z,2.30
2019-05-26T23:12:37.286Z,2.10
2019-05-26T23:15:08.481Z,1.97
2019-05-26T23:17:37.255Z,2.30
2019-05-26T23:20:07.457Z,2.50
2019-05-26T23:22:36.237Z,2.63
2019-05-26T23:25:05.946Z,2.20
2019-05-26T23:27:34.720Z,2.30
2019-05-26T23:30:05.671Z,2.40
2019-05-26T23:32:34.453Z,1.97
2019-05-26T23:35:04.052Z,2.57
2019-05-26T23:37:32.749Z,1.77
2019-05-26T23:40:01.526Z,1.70
2019-05-26T23:42:30.225Z,2.43
2019-05-26T23:44:58.927Z,2.10
2019-05-26T23:47:27.697Z,2.17
2019-05-26T23:49:56.401Z,2.20
2019-05-26T23:52:25.173Z,1.73
2019-05-26T23:54:53.937Z,1.77
2019-05-26T23:57:22.714Z,1.67
2019-05-26T23:59:51.424Z,2.00
